createdAt,value
2019-06-07T00:01:50.192Z,8.00
2019-06-07T00:04:21.066Z,7.50
2019-06-07T00:06:47.237Z,8.60
2019-06-07T00:09:18.637Z,9.15
2019-06-07T00:11:45.310Z,8.98
2019-06-07T00:14:14.700Z,8.38
2019-06-07T00:16:42.031Z,8.05
2019-06-07T00:19:09.647Z,8.38
2019-06-07T00:24:08.561Z,8.23
2019-06-07T00:26:56.317Z,7.72
2019-06-07T00:29:06.365Z,7.72
2019-06-07T00:31:33.785Z,8.95
2019-06-07T00:34:03.783Z,8.15
2019-06-07T00:36:31.174Z,8.35
2019-06-07T00:38:59.353Z,7.87
2019-06-07T00:41:28.435Z,10.28
2019-06-07T00:43:57.045Z,9.55
2019-06-07T00:46:25.402Z,8.43
2019-06-07T00:48:53.098Z,10.58
2019-06-07T00:51:21.914Z,9.38
2019-06-07T00:53:50.361Z,7.90
2019-06-07T00:56:20.308Z,8.88
2019-06-07T00:59:09.680Z,8.15
2019-06-07T01:01:19.082Z,8.10
2019-06-07T01:03:46.109Z,8.33
2019-06-07T01:06:14.923Z,8.73
2019-06-07T01:08:44.287Z,8.13
2019-06-07T01:11:13.478Z,9.68
2019-06-07T01:13:41.106Z,8.88
2019-06-07T01:16:08.499Z,8.45
2019-06-07T01:18:40.975Z,8.78
2019-06-07T01:21:05.544Z,9.70
2019-06-07T01:24:04.758Z,8.28
2019-06-07T01:26:06.852Z,11.20
2019-06-07T01:28:34.365Z,9.23
2019-06-07T01:31:02.069Z,9.40
2019-06-07T01:33:49.950Z,9.50
2019-06-07T01:35:58.742Z,12.53
2019-06-07T01:38:26.899Z,10.50
2019-06-07T01:40:54.357Z,9.75
2019-06-07T01:43:26.109Z,10.63
2019-06-07T01:45:51.180Z,10.68
2019-06-07T01:48:22.796Z,11.75
2019-06-07T01:50:50.012Z,12.43
2019-06-07T01:53:22.407Z,11.97
2019-06-07T01:55:48.266Z,11.33
2019-06-07T01:58:16.993Z,13.38
2019-06-07T02:00:45.349Z,11.97
2019-06-07T02:03:12.866Z,10.88
2019-06-07T02:05:40.358Z,13.93
2019-06-07T02:08:07.874Z,11.28
2019-06-07T02:10:35.372Z,11.60
2019-06-07T02:13:03.810Z,11.95
2019-06-07T02:15:36.476Z,12.07
2019-06-07T02:18:00.556Z,12.18
2019-06-07T02:20:33.481Z,13.08
2019-06-07T02:22:58.324Z,11.70
2019-06-07T02:25:38.322Z,12.05
2019-06-07T02:28:25.859Z,11.75
2019-06-07T02:30:40.600Z,13.88
2019-06-07T02:32:55.040Z,13.53
2019-06-07T02:35:26.079Z,12.82
2019-06-07T02:37:51.641Z,13.15
2019-06-07T02:40:19.184Z,12.03
2019-06-07T02:42:48.871Z,13.85
2019-06-07T02:45:16.352Z,11.88
2019-06-07T02:47:45.461Z,13.20
2019-06-07T02:50:12.973Z,12.80
2019-06-07T02:52:42.484Z,12.23
2019-06-07T02:55:10.273Z,13.13
2019-06-07T02:57:41.617Z,13.20
2019-06-07T03:00:40.773Z,12.55
2019-06-07T03:02:41.192Z,12.68
2019-06-07T03:05:06.485Z,13.45
2019-06-07T03:07:39.023Z,12.43
2019-06-07T03:10:04.284Z,13.25
2019-06-07T03:12:33.532Z,12.50
2019-06-07T03:15:00.868Z,14.33
2019-06-07T03:17:45.136Z,14.35
2019-06-07T03:20:16.871Z,12.85
2019-06-07T03:22:45.487Z,12.93
2019-06-07T03:25:12.980Z,13.72
2019-06-07T03:27:49.155Z,15.08
2019-06-07T03:30:36.028Z,15.53
2019-06-07T03:32:47.239Z,16.80
2019-06-07T03:35:10.066Z,14.65
2019-06-07T03:37:40.734Z,14.93
2019-06-07T03:40:06.719Z,13.70
2019-06-07T03:42:37.685Z,16.02
2019-06-07T03:45:05.656Z,14.53
2019-06-07T03:47:36.526Z,15.30
2019-06-07T03:50:02.279Z,17.32
2019-06-07T03:52:31.596Z,14.78
2019-06-07T03:55:00.325Z,18.98
2019-06-07T03:57:29.076Z,16.97
2019-06-07T03:59:56.961Z,17.77
2019-06-07T04:02:24.468Z,16.17
2019-06-07T04:04:51.989Z,17.90
2019-06-07T04:07:19.469Z,15.90
2019-06-07T04:09:46.987Z,19.27
2019-06-07T04:12:22.207Z,19.20
2019-06-07T04:14:51.131Z,17.25
2019-06-07T04:17:18.678Z,21.07
2019-06-07T04:19:46.817Z,19.92
2019-06-07T04:22:14.229Z,18.02
2019-06-07T04:24:43.368Z,20.80
2019-06-07T04:27:10.804Z,20.02
2019-06-07T04:30:02.987Z,21.65
2019-06-07T04:32:07.703Z,22.32
2019-06-07T04:34:38.364Z,21.00
2019-06-07T04:37:04.230Z,21.00
2019-06-07T04:39:34.004Z,21.68
2019-06-07T04:42:00.958Z,22.37
2019-06-07T04:44:28.892Z,20.88
2019-06-07T04:46:57.564Z,20.95
2019-06-07T04:49:25.168Z,20.10
2019-06-07T04:51:52.798Z,22.67
2019-06-07T04:54:20.147Z,21.62
2019-06-07T04:56:49.247Z,22.17
2019-06-07T05:00:01.116Z,23.85
2019-06-07T05:01:48.351Z,22.13
2019-06-07T05:04:15.851Z,22.20
2019-06-07T05:06:44.002Z,23.92
2019-06-07T05:09:11.426Z,24.75
2019-06-07T05:11:44.297Z,23.95
2019-06-07T05:14:07.974Z,21.37
2019-06-07T05:16:38.838Z,24.55
2019-06-07T05:19:04.457Z,23.92
2019-06-07T05:21:58.391Z,24.10
2019-06-07T05:24:09.475Z,23.95
2019-06-07T05:26:35.882Z,33.10
2019-06-07T05:29:02.125Z,32.30
2019-06-07T05:31:31.845Z,31.55
2019-06-07T05:34:00.308Z,27.75
2019-06-07T05:36:27.771Z,31.12
2019-06-07T05:38:55.767Z,30.20
2019-06-07T05:41:23.802Z,30.30
2019-06-07T05:44:12.033Z,32.83
2019-06-07T05:46:33.924Z,36.08
2019-06-07T05:49:01.234Z,35.15
2019-06-07T05:51:28.607Z,36.10
2019-06-07T05:53:55.988Z,31.85
2019-06-07T05:56:23.337Z,32.28
2019-06-07T05:58:50.725Z,37.10
2019-06-07T06:03:48.490Z,31.93
2019-06-07T06:06:16.525Z,37.50
2019-06-07T06:08:45.335Z,31.85
2019-06-07T06:11:13.022Z,31.75
2019-06-07T06:14:01.515Z,33.05
2019-06-07T06:16:11.198Z,36.03
2019-06-07T06:18:40.544Z,36.48
2019-06-07T06:21:18.755Z,30.65
2019-06-07T06:23:39.610Z,34.75
2019-06-07T06:26:05.996Z,31.85
2019-06-07T06:28:33.492Z,34.18
2019-06-07T06:31:01.127Z,37.00
2019-06-07T06:33:34.516Z,34.65
2019-06-07T06:35:59.248Z,33.78
2019-06-07T06:38:26.669Z,32.17
2019-06-07T06:41:13.836Z,28.77
2019-06-07T06:43:23.183Z,30.85
2019-06-07T06:45:50.829Z,31.35
2019-06-07T06:48:18.588Z,30.75
2019-06-07T06:50:51.781Z,30.57
2019-06-07T06:53:16.660Z,36.55
2019-06-07T06:55:44.623Z,31.60
2019-06-07T06:58:14.244Z,30.88
2019-06-07T07:00:55.444Z,29.55
2019-06-07T07:05:48.456Z,49.58
2019-06-07T07:08:13.695Z,38.25
2019-06-07T07:10:43.237Z,31.57
2019-06-07T07:13:10.666Z,33.67
2019-06-07T07:15:39.667Z,31.35
2019-06-07T07:18:08.831Z,36.10
2019-06-07T07:20:36.017Z,30.48
2019-06-07T07:23:03.356Z,31.42
2019-06-07T07:25:30.766Z,30.62
2019-06-07T07:27:58.184Z,33.05
2019-06-07T07:30:39.523Z,31.25
2019-06-07T07:33:07.211Z,29.87
2019-06-07T07:35:34.724Z,28.83
2019-06-07T07:38:02.184Z,29.20
2019-06-07T07:40:57.199Z,25.20
2019-06-07T07:42:58.676Z,28.32
2019-06-07T07:45:26.049Z,25.75
2019-06-07T07:48:08.331Z,24.82
2019-06-07T07:50:22.836Z,25.57
2019-06-07T07:52:55.974Z,20.62
2019-06-07T07:55:21.239Z,20.12
2019-06-07T07:57:56.007Z,22.25
2019-06-07T08:00:49.466Z,22.95
2019-06-07T08:02:48.807Z,25.37
2019-06-07T08:05:25.686Z,24.07
2019-06-07T08:07:47.551Z,23.62
2019-06-07T08:10:14.434Z,26.07
2019-06-07T08:13:00.446Z,25.08
2019-06-07T08:15:11.099Z,22.45
2019-06-07T08:17:38.508Z,24.45
2019-06-07T08:20:08.817Z,24.82
2019-06-07T08:22:36.235Z,24.87
2019-06-07T08:25:07.663Z,24.63
2019-06-07T08:27:37.345Z,25.12
2019-06-07T08:30:46.515Z,25.40
2019-06-07T08:32:38.095Z,26.37
2019-06-07T08:35:06.924Z,24.40
2019-06-07T08:38:14.255Z,26.30
2019-06-07T08:40:08.398Z,27.35
2019-06-07T08:42:59.434Z,28.60
2019-06-07T08:45:07.789Z,23.90
2019-06-07T08:47:35.242Z,24.35
2019-06-07T08:50:07.462Z,27.60
2019-06-07T08:52:31.692Z,24.85
2019-06-07T08:55:03.324Z,28.42
2019-06-07T08:57:28.384Z,27.95
2019-06-07T08:59:58.561Z,26.55
2019-06-07T09:02:25.929Z,27.67
2019-06-07T09:04:57.015Z,27.22
2019-06-07T09:07:22.769Z,27.25
2019-06-07T09:09:50.229Z,25.80
2019-06-07T09:12:17.640Z,25.55
2019-06-07T09:14:59.973Z,25.20
2019-06-07T09:17:14.057Z,29.40
2019-06-07T09:19:41.496Z,23.62
2019-06-07T09:22:11.280Z,23.20
2019-06-07T09:24:38.088Z,24.63
2019-06-07T09:27:07.795Z,27.30
2019-06-07T09:29:35.280Z,21.95
2019-06-07T09:32:07.645Z,21.52
2019-06-07T09:34:31.795Z,23.73
2019-06-07T09:37:04.283Z,19.77
2019-06-07T09:39:28.375Z,24.72
2019-06-07T09:41:56.511Z,18.95
2019-06-07T09:44:26.599Z,19.02
2019-06-07T09:47:12.924Z,20.02
2019-06-07T09:49:32.044Z,18.87
2019-06-07T09:51:53.689Z,19.65
2019-06-07T09:55:03.123Z,17.62
2019-06-07T09:56:50.271Z,18.17
2019-06-07T09:59:17.752Z,16.90
2019-06-07T10:01:45.294Z,15.75
2019-06-07T10:04:30.123Z,17.65
2019-06-07T10:06:41.745Z,18.32
2019-06-07T10:11:39.245Z,16.82
2019-06-07T10:14:06.937Z,18.70
2019-06-07T10:16:46.166Z,15.32
2019-06-07T10:19:03.713Z,13.75
2019-06-07T10:21:32.150Z,14.50
2019-06-07T10:23:59.559Z,13.58
2019-06-07T10:26:27.053Z,13.35
2019-06-07T10:28:54.432Z,12.33
2019-06-07T10:31:21.855Z,14.90
2019-06-07T10:33:49.793Z,10.60
2019-06-07T10:36:17.401Z,10.25
2019-06-07T10:38:44.935Z,12.82
2019-06-07T10:41:13.916Z,11.93
2019-06-07T10:43:41.333Z,9.00
2019-06-07T10:46:15.896Z,8.60
2019-06-07T10:48:43.342Z,7.45
2019-06-07T10:51:12.371Z,8.70
2019-06-07T10:53:39.848Z,7.65
2019-06-07T10:56:07.187Z,7.03
2019-06-07T10:58:34.915Z,10.40
2019-06-07T11:01:05.175Z,6.50
2019-06-07T11:03:33.030Z,5.65
2019-06-07T11:06:00.453Z,5.83
2019-06-07T11:08:27.853Z,5.70
2019-06-07T11:10:55.875Z,6.65
2019-06-07T11:13:26.035Z,5.50
2019-06-07T11:15:53.459Z,5.33
2019-06-07T11:18:20.825Z,4.90
2019-06-07T11:20:48.317Z,4.42
2019-06-07T11:23:15.634Z,4.33
2019-06-07T11:25:43.067Z,4.08
2019-06-07T11:28:10.678Z,3.95
2019-06-07T11:30:37.980Z,5.30
2019-06-07T11:33:06.431Z,4.58
2019-06-07T11:35:33.928Z,4.10
2019-06-07T11:38:01.330Z,4.30
2019-06-07T11:40:35.684Z,5.87
2019-06-07T11:42:57.834Z,4.90
2019-06-07T11:45:25.384Z,3.98
2019-06-07T11:47:52.760Z,4.40
2019-06-07T11:50:20.085Z,4.15
2019-06-07T11:52:47.418Z,4.85
2019-06-07T11:55:15.842Z,4.95
2019-06-07T11:57:43.333Z,4.30
2019-06-07T12:00:13.925Z,5.33
2019-06-07T12:02:41.630Z,6.25
2019-06-07T12:05:11.283Z,5.72
2019-06-07T12:07:38.364Z,5.28
2019-06-07T12:10:08.449Z,4.85
2019-06-07T12:12:36.060Z,3.62
2019-06-07T12:15:08.819Z,5.08
2019-06-07T12:17:36.518Z,4.70
2019-06-07T12:20:08.448Z,5.72
2019-06-07T12:22:33.776Z,9.55
2019-06-07T12:25:01.176Z,6.92
2019-06-07T12:27:28.484Z,6.45
2019-06-07T12:29:55.811Z,5.65
2019-06-07T12:32:23.194Z,6.80
2019-06-07T12:34:50.559Z,6.95
2019-06-07T12:37:21.081Z,5.22
2019-06-07T12:39:47.144Z,6.60
2019-06-07T12:42:14.904Z,6.62
2019-06-07T12:44:42.367Z,6.58
2019-06-07T12:47:09.748Z,7.87
2019-06-07T12:49:37.615Z,7.80
2019-06-07T12:52:05.035Z,7.67
2019-06-07T12:54:32.348Z,7.28
2019-06-07T12:56:59.747Z,7.78
2019-06-07T12:59:27.085Z,7.45
2019-06-07T13:01:54.394Z,7.95
2019-06-07T13:04:22.583Z,8.10
2019-06-07T13:06:50.092Z,8.43
2019-06-07T13:09:17.771Z,7.65
2019-06-07T13:11:45.264Z,8.63
2019-06-07T13:14:12.651Z,8.73
2019-06-07T13:16:40.048Z,9.58
2019-06-07T13:19:07.380Z,10.13
2019-06-07T13:21:34.735Z,10.48
2019-06-07T13:24:02.044Z,10.68
2019-06-07T13:26:29.960Z,10.48
2019-06-07T13:28:57.326Z,12.18
2019-06-07T13:31:25.230Z,11.03
2019-06-07T13:33:52.666Z,10.65
2019-06-07T13:36:20.220Z,10.82
2019-06-07T13:38:47.532Z,11.22
2019-06-07T13:41:30.176Z,10.35
2019-06-07T13:43:43.954Z,10.28
2019-06-07T13:46:13.065Z,11.53
2019-06-07T13:48:43.327Z,11.03
2019-06-07T13:51:10.739Z,9.85
2019-06-07T13:53:38.058Z,10.95
2019-06-07T13:56:05.511Z,10.00
2019-06-07T13:58:32.857Z,9.50
2019-06-07T14:01:00.334Z,11.25
2019-06-07T14:03:32.879Z,9.18
2019-06-07T14:05:58.432Z,9.60
2019-06-07T14:08:27.172Z,9.98
2019-06-07T14:10:54.722Z,9.28
2019-06-07T14:13:22.108Z,8.93
2019-06-07T14:15:49.456Z,9.25
2019-06-07T14:18:16.870Z,11.10
2019-06-07T14:20:44.202Z,9.18
2019-06-07T14:23:11.569Z,9.15
2019-06-07T14:25:41.103Z,7.80
2019-06-07T14:28:11.398Z,10.13
2019-06-07T14:30:37.007Z,9.78
2019-06-07T14:33:04.493Z,8.05
2019-06-07T14:35:33.569Z,7.53
2019-06-07T14:38:01.266Z,8.25
2019-06-07T14:40:30.058Z,9.53
2019-06-07T14:42:57.528Z,9.53
2019-06-07T14:45:25.533Z,9.35
2019-06-07T14:47:52.922Z,8.60
2019-06-07T14:50:20.301Z,7.25
2019-06-07T14:52:47.728Z,7.80
2019-06-07T14:55:15.655Z,7.33
2019-06-07T14:57:43.251Z,8.45
2019-06-07T15:00:12.073Z,7.00
2019-06-07T15:02:39.986Z,6.37
2019-06-07T15:05:07.585Z,5.58
2019-06-07T15:07:35.029Z,5.67
2019-06-07T15:10:04.125Z,5.87
2019-06-07T15:12:31.487Z,5.92
2019-06-07T15:15:00.642Z,7.05
2019-06-07T15:17:31.255Z,6.95
2019-06-07T15:19:58.780Z,7.35
2019-06-07T15:22:26.203Z,6.65
2019-06-07T15:24:53.604Z,7.97
2019-06-07T15:27:20.930Z,7.87
2019-06-07T15:29:48.331Z,8.00
2019-06-07T15:32:15.779Z,8.48
2019-06-07T15:34:44.061Z,8.33
2019-06-07T15:37:11.464Z,7.75
2019-06-07T15:39:38.868Z,7.72
2019-06-07T15:42:06.195Z,7.75
2019-06-07T15:44:33.501Z,7.53
2019-06-07T15:47:00.895Z,6.80
2019-06-07T15:49:28.276Z,7.97
2019-06-07T15:51:55.608Z,7.65
2019-06-07T15:54:22.937Z,6.87
2019-06-07T15:56:50.251Z,7.10
2019-06-07T15:59:17.608Z,6.80
2019-06-07T16:01:44.925Z,5.50
2019-06-07T16:04:12.344Z,6.45
2019-06-07T16:06:40.559Z,6.72
2019-06-07T16:09:08.078Z,6.80
2019-06-07T16:11:37.070Z,6.22
2019-06-07T16:14:06.351Z,6.15
2019-06-07T16:16:35.057Z,5.72
2019-06-07T16:19:02.511Z,5.58
2019-06-07T16:21:29.966Z,5.80
2019-06-07T16:24:00.364Z,5.53
2019-06-07T16:26:27.829Z,8.68
2019-06-07T16:28:57.345Z,4.65
2019-06-07T16:31:24.122Z,4.97
2019-06-07T16:33:51.458Z,5.53
2019-06-07T16:36:18.814Z,5.62
2019-06-07T16:38:46.269Z,5.10
2019-06-07T16:41:13.677Z,6.05
2019-06-07T16:43:41.046Z,5.08
2019-06-07T16:46:08.386Z,5.30
2019-06-07T16:48:36.779Z,5.50
2019-06-07T16:51:04.277Z,5.22
2019-06-07T16:53:31.740Z,5.65
2019-06-07T16:55:59.126Z,5.37
2019-06-07T16:58:26.561Z,5.50
2019-06-07T17:00:57.274Z,5.00
2019-06-07T17:03:24.686Z,6.55
2019-06-07T17:05:52.346Z,5.28
2019-06-07T17:08:20.176Z,5.55
2019-06-07T17:10:48.992Z,5.70
2019-06-07T17:13:32.111Z,5.05
2019-06-07T17:15:47.073Z,5.12
2019-06-07T17:18:14.447Z,6.28
2019-06-07T17:20:42.986Z,5.08
2019-06-07T17:23:10.576Z,5.55
2019-06-07T17:25:39.301Z,5.60
2019-06-07T17:28:06.961Z,5.78
2019-06-07T17:30:34.280Z,5.30
2019-06-07T17:33:03.380Z,5.67
2019-06-07T17:35:30.667Z,5.55
2019-06-07T17:37:57.994Z,5.30
2019-06-07T17:40:25.337Z,5.75
2019-06-07T17:42:52.681Z,5.80
2019-06-07T17:45:20.009Z,5.03
2019-06-07T17:47:47.764Z,6.55
2019-06-07T17:50:15.142Z,5.58
2019-06-07T17:52:43.712Z,5.92
2019-06-07T17:55:11.367Z,5.95
2019-06-07T17:57:38.700Z,5.20
2019-06-07T18:02:39.792Z,6.10
2019-06-07T18:05:07.256Z,5.97
2019-06-07T18:07:34.735Z,5.78
2019-06-07T18:10:02.720Z,5.87
2019-06-07T18:12:30.053Z,6.75
2019-06-07T18:14:57.411Z,6.12
2019-06-07T18:17:34.057Z,5.45
2019-06-07T18:19:55.179Z,5.40
2019-06-07T18:22:22.943Z,6.40
2019-06-07T18:24:50.630Z,5.45
2019-06-07T18:27:17.983Z,7.00
2019-06-07T18:29:46.459Z,6.70
2019-06-07T18:32:16.176Z,7.37
2019-06-07T18:34:43.482Z,6.17
2019-06-07T18:37:13.365Z,7.10
2019-06-07T18:39:40.759Z,6.35
2019-06-07T18:42:08.182Z,7.53
2019-06-07T18:44:35.551Z,7.25
2019-06-07T18:47:02.955Z,8.28
2019-06-07T18:49:30.385Z,10.60
2019-06-07T18:52:17.469Z,9.78
2019-06-07T18:54:50.915Z,11.63
2019-06-07T18:57:18.275Z,10.40
2019-06-07T18:59:48.266Z,11.03
2019-06-07T19:02:15.873Z,10.35
2019-06-07T19:04:43.300Z,11.93
2019-06-07T19:07:11.898Z,11.57
2019-06-07T19:09:39.302Z,11.85
2019-06-07T19:12:09.581Z,12.47
2019-06-07T19:14:37.582Z,14.30
2019-06-07T19:17:08.119Z,14.35
2019-06-07T19:19:35.539Z,15.25
2019-06-07T19:22:02.882Z,16.55
2019-06-07T19:24:30.253Z,14.35
2019-06-07T19:26:58.693Z,12.98
2019-06-07T19:29:26.054Z,11.48
2019-06-07T19:31:53.455Z,12.03
2019-06-07T19:34:20.808Z,12.75
2019-06-07T19:36:51.473Z,11.93
2019-06-07T19:39:19.119Z,13.45
2019-06-07T19:41:46.480Z,12.28
2019-06-07T19:44:13.815Z,12.30
2019-06-07T19:46:41.226Z,11.90
2019-06-07T19:49:10.241Z,10.13
2019-06-07T19:51:38.862Z,11.45
2019-06-07T19:54:06.146Z,10.70
2019-06-07T19:56:34.337Z,12.20
2019-06-07T19:59:02.203Z,16.67
2019-06-07T20:01:29.629Z,17.85
2019-06-07T20:03:58.009Z,16.85
2019-06-07T20:06:25.325Z,20.12
2019-06-07T20:08:52.743Z,24.65
2019-06-07T20:11:20.083Z,20.77
2019-06-07T20:13:47.423Z,19.95
2019-06-07T20:16:14.879Z,17.02
2019-06-07T20:18:42.303Z,18.00
2019-06-07T20:21:09.726Z,17.05
2019-06-07T20:23:37.192Z,12.35
2019-06-07T20:26:11.033Z,12.03
2019-06-07T20:28:38.429Z,16.20
2019-06-07T20:31:06.124Z,22.73
2019-06-07T20:33:33.581Z,22.73
2019-06-07T20:36:04.871Z,25.17
2019-06-07T20:38:31.698Z,27.10
2019-06-07T20:40:59.113Z,26.82
2019-06-07T20:43:26.487Z,26.10
2019-06-07T20:45:53.896Z,24.00
2019-06-07T20:48:21.296Z,20.55
2019-06-07T20:50:48.709Z,21.02
2019-06-07T20:53:16.045Z,19.32
2019-06-07T20:55:43.392Z,22.25
2019-06-07T20:58:10.773Z,18.65
2019-06-07T21:00:38.229Z,22.85
2019-06-07T21:03:07.262Z,21.05
2019-06-07T21:05:34.760Z,22.22
2019-06-07T21:08:03.763Z,19.92
2019-06-07T21:10:31.383Z,17.98
2019-06-07T21:12:59.693Z,18.30
2019-06-07T21:15:27.097Z,18.23
2019-06-07T21:17:54.534Z,16.67
2019-06-07T21:20:21.940Z,16.48
2019-06-07T21:22:49.360Z,16.93
2019-06-07T21:25:16.759Z,17.35
2019-06-07T21:27:44.118Z,15.00
2019-06-07T21:30:11.707Z,14.78
2019-06-07T21:32:39.285Z,14.30
2019-06-07T21:35:08.049Z,14.10
2019-06-07T21:37:35.455Z,16.62
2019-06-07T21:40:04.172Z,14.40
2019-06-07T21:42:31.601Z,14.07
2019-06-07T21:44:59.003Z,15.90
2019-06-07T21:47:26.417Z,15.88
2019-06-07T21:49:53.768Z,16.05
2019-06-07T21:52:21.104Z,17.77
2019-06-07T21:54:48.431Z,17.25
2019-06-07T21:57:15.834Z,16.93
2019-06-07T21:59:43.199Z,17.00
2019-06-07T22:02:11.708Z,15.78
2019-06-07T22:04:39.045Z,15.90
2019-06-07T22:07:07.894Z,16.35
2019-06-07T22:09:35.321Z,15.90
2019-06-07T22:12:04.347Z,15.48
2019-06-07T22:14:31.804Z,17.57
2019-06-07T22:16:59.125Z,21.50
2019-06-07T22:19:26.549Z,18.45
2019-06-07T22:22:02.648Z,16.95
2019-06-07T22:24:22.974Z,19.30
2019-06-07T22:26:50.311Z,18.98
2019-06-07T22:29:19.382Z,20.05
2019-06-07T22:31:46.798Z,18.65
2019-06-07T22:34:15.073Z,18.95
2019-06-07T22:36:42.593Z,18.25
2019-06-07T22:39:11.581Z,18.50
2019-06-07T22:41:39.032Z,21.10
2019-06-07T22:44:07.019Z,18.12
2019-06-07T22:46:37.714Z,21.33
2019-06-07T22:49:03.651Z,30.43
2019-06-07T22:51:31.000Z,25.52
2019-06-07T22:53:58.376Z,23.75
2019-06-07T22:56:39.515Z,22.30
2019-06-07T22:59:07.965Z,21.82
2019-06-07T23:01:35.900Z,19.27
2019-06-07T23:04:03.223Z,19.80
2019-06-07T23:06:30.520Z,18.98
2019-06-07T23:08:57.942Z,21.60
2019-06-07T23:11:25.263Z,21.57
2019-06-07T23:13:52.686Z,22.17
2019-06-07T23:16:20.070Z,21.80
2019-06-07T23:18:47.728Z,23.95
2019-06-07T23:21:15.921Z,25.15
2019-06-07T23:23:43.380Z,28.42
2019-06-07T23:26:12.097Z,22.73
2019-06-07T23:28:39.574Z,21.93
2019-06-07T23:31:06.905Z,22.60
2019-06-07T23:33:34.260Z,25.68
2019-06-07T23:36:01.735Z,23.15
2019-06-07T23:38:29.172Z,23.87
2019-06-07T23:40:56.574Z,25.77
2019-06-07T23:43:23.955Z,26.95
2019-06-07T23:45:51.276Z,26.70
2019-06-07T23:48:19.542Z,25.50
2019-06-07T23:50:46.944Z,24.70
2019-06-07T23:53:14.248Z,26.45
2019-06-07T23:55:41.611Z,25.55
2019-06-07T23:58:08.998Z,23.02
